Time;durP1;ratioP1;P1;durP2;ratioP2;P2;SDS_P1;SDS_P2;PMS_P1;PMS_P2;Temp;Humidity;BMP_temperature;BMP_pressure;BME280_temperature;BME280_humidity;BME280_pressure;Samples;Min_cycle;Max_cycle;Signal;HPM_P1;HPM_P2
2023/02/04 00:01:25;;;;;;;;;;;;;;;;;;4421126;32;19957;-74
2023/02/04 00:03:51;;;;;;;;;;;;;;;;;;4422683;32;19946;-74
2023/02/04 00:06:16;;;;;;;;;;;;;;;;;;4420383;32;19988;-74
2023/02/04 00:08:41;;;;;;;;;;;;;;;;;;4410927;32;19990;-73
2023/02/04 00:11:06;;;;;;;;;;;;;;;;;;4413104;32;20267;-74
2023/02/04 00:13:31;;;;;;;;;;;;;;;;;;4417267;32;19992;-75
2023/02/04 00:15:56;;;;;;;;;;;;;;;;;;4415108;32;20292;-75
2023/02/04 00:18:22;;;;;;;;;;;;;;;;;;4410213;32;19979;-75
2023/02/04 00:20:47;;;;;;;;;;;;;;;;;;4405300;32;20284;-74
2023/02/04 00:23:12;;;;;;;;;;;;;;;;;;4405620;32;20338;-74
2023/02/04 00:25:37;;;;;;;;;;;;;;;;;;4408957;32;19937;-74
2023/02/04 00:28:02;;;;;;;;;;;;;;;;;;4421913;32;19973;-74
2023/02/04 00:30:28;;;;;;;;;;;;;;;;;;4421162;32;19960;-75
2023/02/04 00:32:55;;;;;;;;;;;;;;;;;;4421424;32;19975;-76
2023/02/04 00:35:20;;;;;;;;;;;;;;;;;;4420420;32;20356;-73
2023/02/04 00:37:45;;;;;;;;;;;;;;;;;;4423716;32;19941;-73
2023/02/04 00:40:10;;;;;;;;;;;;;;;;;;4421530;32;19937;-74
2023/02/04 00:42:35;;;;;;;;;;;;;;;;;;4420275;32;19937;-74
2023/02/04 00:45:00;;;;;;;;;;;;;;;;;;4420301;32;19945;-73
2023/02/04 00:47:26;;;;;;;;;;;;;;;;;;4421721;32;19933;-73
2023/02/04 00:49:51;;;;;;;;;;;;;;;;;;4421216;32;19972;-73
2023/02/04 00:52:16;;;;;;;;;;;;;;;;;;4421123;32;20000;-74
2023/02/04 00:54:41;;;;;;;;;;;;;;;;;;4421584;32;19952;-74
2023/02/04 00:57:06;;;;;;;;;;;;;;;;;;4422060;32;19952;-74
2023/02/04 00:59:31;;;;;;;;;;;;;;;;;;4420848;32;19972;-73
2023/02/04 01:01:56;;;;;;;;;;;;;;;;;;4420006;32;19941;-74
2023/02/04 01:04:22;;;;;;;;;;;;;;;;;;4420099;32;19941;-74
2023/02/04 01:06:47;;;;;;;;;;;;;;;;;;4420090;32;19933;-75
2023/02/04 01:09:12;;;;;;;;;;;;;;;;;;4419679;32;19945;-73
2023/02/04 01:11:37;;;;;;;;;;;;;;;;;;4422863;32;19948;-73
2023/02/04 01:14:02;;;;;;;;;;;;;;;;;;4420541;32;19953;-73
2023/02/04 01:16:27;;;;;;;;;;;;;;;;;;4419393;32;19937;-74
2023/02/04 01:18:54;;;;;;;;;;;;;;;;;;4420161;32;19957;-75
2023/02/04 01:21:19;;;;;;;;;;;;;;;;;;4421054;32;19978;-74
2023/02/04 01:23:44;;;;;;;;;;;;;;;;;;4421662;32;19941;-75
2023/02/04 01:26:10;;;;;;;;;;;;;;;;;;4421457;32;19937;-74
2023/02/04 01:28:35;;;;;;;;;;;;;;;;;;4422209;32;19991;-74
2023/02/04 01:31:00;;;;;;;;;;;;;;;;;;4420073;32;19993;-75
2023/02/04 01:33:25;;;;;;;;;;;;;;;;;;4422138;32;19948;-74
2023/02/04 01:35:50;;;;;;;;;;;;;;;;;;4417096;32;20013;-73
2023/02/04 01:38:15;;;;;;;;;;;;;;;;;;4406074;32;19952;-73
2023/02/04 01:40:40;;;;;;;;;;;;;;;;;;4407509;32;19938;-74
2023/02/04 01:43:05;;;;;;;;;;;;;;;;;;4404317;32;19953;-74
2023/02/04 01:45:33;;;;;;;;;;;;;;;;;;4417905;32;19997;-74
2023/02/04 01:47:58;;;;;;;;;;;;;;;;;;4420682;32;19944;-74
2023/02/04 01:50:23;;;;;;;;;;;;;;;;;;4419389;32;19938;-73
2023/02/04 01:52:48;;;;;;;;;;;;;;;;;;4421946;32;19952;-74
2023/02/04 01:55:13;;;;;;;;;;;;;;;;;;4420475;32;19941;-74
2023/02/04 01:57:38;;;;;;;;;;;;;;;;;;4420718;32;19942;-73
2023/02/04 02:00:04;;;;;;;;;;;;;;;;;;4420472;32;19929;-73
2023/02/04 02:02:29;;;;;;;;;;;;;;;;;;4420777;32;19992;-73
2023/02/04 02:04:54;;;;;;;;;;;;;;;;;;4421892;32;19978;-73
2023/02/04 02:07:19;;;;;;;;;;;;;;;;;;4419227;32;19969;-74
2023/02/04 02:09:44;;;;;;;;;;;;;;;;;;4421966;32;19956;-73
2023/02/04 02:12:09;;;;;;;;;;;;;;;;;;4420146;32;19941;-74
2023/02/04 02:14:34;;;;;;;;;;;;;;;;;;4420944;32;19992;-72
2023/02/04 02:16:59;;;;;;;;;;;;;;;;;;4412893;32;19974;-73
2023/02/04 02:19:24;;;;;;;;;;;;;;;;;;4405144;32;19937;-73
2023/02/04 02:21:49;;;;;;;;;;;;;;;;;;4407035;32;20020;-73
2023/02/04 02:24:15;;;;;;;;;;;;;;;;;;4404025;32;20244;-73
2023/02/04 02:26:40;;;;;;;;;;;;;;;;;;4406070;32;19978;-72
2023/02/04 02:29:05;;;;;;;;;;;;;;;;;;4406250;32;19975;-73
2023/02/04 02:31:30;;;;;;;;;;;;;;;;;;4405010;32;19937;-74
2023/02/04 02:33:55;;;;;;;;;;;;;;;;;;4405753;32;19948;-73
2023/02/04 02:36:22;;;;;;;;;;;;;;;;;;4408335;32;19972;-74
2023/02/04 02:38:47;;;;;;;;;;;;;;;;;;4407987;32;19938;-72
2023/02/04 02:41:12;;;;;;;;;;;;;;;;;;4408146;32;19956;-73
2023/02/04 02:43:37;;;;;;;;;;;;;;;;;;4407012;32;19942;-73
2023/02/04 02:46:02;;;;;;;;;;;;;;;;;;4406742;32;19942;-73
2023/02/04 02:48:28;;;;;;;;;;;;;;;;;;4409891;32;19968;-74
2023/02/04 02:50:53;;;;;;;;;;;;;;;;;;4408693;32;19942;-74
2023/02/04 02:53:18;;;;;;;;;;;;;;;;;;4409422;32;19934;-74
2023/02/04 02:55:43;;;;;;;;;;;;;;;;;;4413064;32;19945;-73
2023/02/04 02:58:08;;;;;;;;;;;;;;;;;;4409928;32;19949;-72
2023/02/04 03:00:33;;;;;;;;;;;;;;;;;;4409313;32;19975;-72
2023/02/04 03:02:58;;;;;;;;;;;;;;;;;;4409744;32;19937;-73
2023/02/04 03:05:23;;;;;;;;;;;;;;;;;;4408343;32;20398;-73
2023/02/04 03:07:49;;;;;;;;;;;;;;;;;;4408744;32;20221;-73
2023/02/04 03:10:14;;;;;;;;;;;;;;;;;;4408648;32;20279;-73
2023/02/04 03:12:39;;;;;;;;;;;;;;;;;;4406896;32;19952;-73
2023/02/04 03:15:04;;;;;;;;;;;;;;;;;;4409012;32;19967;-73
2023/02/04 03:17:29;;;;;;;;;;;;;;;;;;4409401;32;19937;-74
2023/02/04 03:19:54;;;;;;;;;;;;;;;;;;4407115;32;20263;-74
2023/02/04 03:22:19;;;;;;;;;;;;;;;;;;4409041;32;19973;-74
2023/02/04 03:24:45;;;;;;;;;;;;;;;;;;4407145;32;19990;-73
2023/02/04 03:27:10;;;;;;;;;;;;;;;;;;4408809;32;19938;-73
2023/02/04 03:29:35;;;;;;;;;;;;;;;;;;4408119;32;19975;-74
2023/02/04 03:32:01;;;;;;;;;;;;;;;;;;4418000;32;20283;-73
2023/02/04 03:34:26;;;;;;;;;;;;;;;;;;4421679;32;20011;-73
2023/02/04 03:36:51;;;;;;;;;;;;;;;;;;4422739;32;19998;-73
2023/02/04 03:39:16;;;;;;;;;;;;;;;;;;4421327;32;19937;-73
2023/02/04 03:41:41;;;;;;;;;;;;;;;;;;4420975;32;20349;-73
2023/02/04 03:44:06;;;;;;;;;;;;;;;;;;4424216;32;19948;-72
2023/02/04 03:46:31;;;;;;;;;;;;;;;;;;4423372;32;20026;-73
2023/02/04 03:48:57;;;;;;;;;;;;;;;;;;4422301;32;20051;-73
2023/02/04 03:51:22;;;;;;;;;;;;;;;;;;4422305;32;19968;-73
2023/02/04 03:53:47;;;;;;;;;;;;;;;;;;4421338;32;19971;-73
2023/02/04 03:56:12;;;;;;;;;;;;;;;;;;4423317;32;20294;-74
2023/02/04 03:58:37;;;;;;;;;;;;;;;;;;4420877;32;19945;-73
2023/02/04 04:01:02;;;;;;;;;;;;;;;;;;4420804;32;20058;-72
2023/02/04 04:03:27;;;;;;;;;;;;;;;;;;4422156;32;20283;-72
2023/02/04 04:05:52;;;;;;;;;;;;;;;;;;4422981;32;19942;-73
2023/02/04 04:08:17;;;;;;;;;;;;;;;;;;4423486;32;19932;-73
2023/02/04 04:10:43;;;;;;;;;;;;;;;;;;4423874;32;19937;-73
2023/02/04 04:13:08;;;;;;;;;;;;;;;;;;4424535;32;19937;-73
2023/02/04 04:15:33;;;;;;;;;;;;;;;;;;4423325;32;19941;-73
2023/02/04 04:17:58;;;;;;;;;;;;;;;;;;4422259;32;20303;-74
2023/02/04 04:20:24;;;;;;;;;;;;;;;;;;4420663;32;19945;-73
2023/02/04 04:22:49;;;;;;;;;;;;;;;;;;4421611;32;19986;-73
2023/02/04 04:25:14;;;;;;;;;;;;;;;;;;4422651;32;19944;-73
2023/02/04 04:27:39;;;;;;;;;;;;;;;;;;4421712;32;19933;-73
2023/02/04 04:30:04;;;;;;;;;;;;;;;;;;4421626;32;19933;-73
2023/02/04 04:32:30;;;;;;;;;;;;;;;;;;4422252;32;19949;-74
2023/02/04 04:34:55;;;;;;;;;;;;;;;;;;4420564;32;19990;-73
2023/02/04 04:37:20;;;;;;;;;;;;;;;;;;4421872;32;19933;-73
2023/02/04 04:39:45;;;;;;;;;;;;;;;;;;4422170;32;19948;-74
2023/02/04 04:42:10;;;;;;;;;;;;;;;;;;4422284;32;19957;-73
2023/02/04 04:44:35;;;;;;;;;;;;;;;;;;4423371;32;19937;-71
2023/02/04 04:47:02;;;;;;;;;;;;;;;;;;4422228;32;19987;-73
2023/02/04 04:49:27;;;;;;;;;;;;;;;;;;4422092;32;20319;-72
2023/02/04 04:51:52;;;;;;;;;;;;;;;;;;4421332;32;20325;-73
2023/02/04 04:54:17;;;;;;;;;;;;;;;;;;4421710;32;19941;-73
2023/02/04 04:56:42;;;;;;;;;;;;;;;;;;4414701;32;19981;-74
2023/02/04 04:59:07;;;;;;;;;;;;;;;;;;4416640;32;19983;-73
2023/02/04 05:01:32;;;;;;;;;;;;;;;;;;4422428;32;19938;-73
2023/02/04 05:03:57;;;;;;;;;;;;;;;;;;4420141;32;19961;-74
2023/02/04 05:06:24;;;;;;;;;;;;;;;;;;4420006;32;19970;-73
2023/02/04 05:08:49;;;;;;;;;;;;;;;;;;4418371;32;20365;-73
2023/02/04 05:11:14;;;;;;;;;;;;;;;;;;4405100;32;19982;-73
2023/02/04 05:13:39;;;;;;;;;;;;;;;;;;4406143;32;19960;-73
2023/02/04 05:16:04;;;;;;;;;;;;;;;;;;4405901;32;19937;-74
2023/02/04 05:18:29;;;;;;;;;;;;;;;;;;4406280;32;19985;-74
2023/02/04 05:20:54;;;;;;;;;;;;;;;;;;4406123;32;19948;-73
2023/02/04 05:23:19;;;;;;;;;;;;;;;;;;4407556;32;19937;-73
2023/02/04 05:25:45;;;;;;;;;;;;;;;;;;4407296;32;19941;-73
2023/02/04 05:28:10;;;;;;;;;;;;;;;;;;4404776;32;19982;-73
2023/02/04 05:30:35;;;;;;;;;;;;;;;;;;4405817;32;19933;-73
2023/02/04 05:33:00;;;;;;;;;;;;;;;;;;4419139;32;19979;-73
2023/02/04 05:35:25;;;;;;;;;;;;;;;;;;4423684;32;19933;-74
2023/02/04 05:37:50;;;;;;;;;;;;;;;;;;4419739;32;20424;-73
2023/02/04 05:40:15;;;;;;;;;;;;;;;;;;4420795;32;20554;-72
2023/02/04 05:42:40;;;;;;;;;;;;;;;;;;4420968;32;20295;-73
2023/02/04 05:45:05;;;;;;;;;;;;;;;;;;4419536;32;19941;-72
2023/02/04 05:47:31;;;;;;;;;;;;;;;;;;4419381;32;19944;-73
2023/02/04 05:49:56;;;;;;;;;;;;;;;;;;4420894;32;19957;-73
2023/02/04 05:52:21;;;;;;;;;;;;;;;;;;4421133;32;19971;-74
2023/02/04 05:54:46;;;;;;;;;;;;;;;;;;4421061;32;19970;-73
2023/02/04 05:57:11;;;;;;;;;;;;;;;;;;4420712;32;19978;-73
2023/02/04 05:59:36;;;;;;;;;;;;;;;;;;4421011;32;19933;-74
2023/02/04 06:02:01;;;;;;;;;;;;;;;;;;4420316;32;20033;-73
2023/02/04 06:04:26;;;;;;;;;;;;;;;;;;4420671;32;19941;-73
2023/02/04 06:06:51;;;;;;;;;;;;;;;;;;4422691;32;20361;-73
2023/02/04 06:09:20;;;;;;;;;;;;;;;;;;4420183;32;19941;-73
2023/02/04 06:11:45;;;;;;;;;;;;;;;;;;4421305;32;19972;-74
2023/02/04 06:14:10;;;;;;;;;;;;;;;;;;4408035;32;19938;-74
2023/02/04 06:16:35;;;;;;;;;;;;;;;;;;4408957;32;20304;-74
2023/02/04 06:19:00;;;;;;;;;;;;;;;;;;4407403;32;20341;-73
2023/02/04 06:21:25;;;;;;;;;;;;;;;;;;4409160;32;19934;-72
2023/02/04 06:23:50;;;;;;;;;;;;;;;;;;4410038;32;19948;-73
2023/02/04 06:26:15;;;;;;;;;;;;;;;;;;4407531;32;19941;-73
2023/02/04 06:28:40;;;;;;;;;;;;;;;;;;4406768;32;19938;-73
2023/02/04 06:31:07;;;;;;;;;;;;;;;;;;4408531;32;19975;-73
2023/02/04 06:33:32;;;;;;;;;;;;;;;;;;4408738;32;19953;-73
2023/02/04 06:35:58;;;;;;;;;;;;;;;;;;4417466;32;19956;-73
2023/02/04 06:38:23;;;;;;;;;;;;;;;;;;4410382;32;19937;-73
2023/02/04 06:40:52;;;;;;;;;;;;;;;;;;4408205;32;20309;-74
2023/02/04 06:43:17;;;;;;;;;;;;;;;;;;4414059;32;19929;-73
2023/02/04 06:45:42;;;;;;;;;;;;;;;;;;4411581;32;19988;-74
2023/02/04 06:48:07;;;;;;;;;;;;;;;;;;4408781;32;20316;-72
2023/02/04 06:50:32;;;;;;;;;;;;;;;;;;4406964;32;19938;-72
2023/02/04 06:52:57;;;;;;;;;;;;;;;;;;4408297;32;19949;-73
2023/02/04 06:55:22;;;;;;;;;;;;;;;;;;4409338;32;19941;-73
2023/02/04 06:57:48;;;;;;;;;;;;;;;;;;4408922;32;19938;-73
2023/02/04 07:00:13;;;;;;;;;;;;;;;;;;4408596;32;19933;-74
2023/02/04 07:02:39;;;;;;;;;;;;;;;;;;4407739;32;20300;-73
2023/02/04 07:05:04;;;;;;;;;;;;;;;;;;4409246;32;19952;-73
2023/02/04 07:07:29;;;;;;;;;;;;;;;;;;4411059;32;20002;-73
2023/02/04 07:09:54;;;;;;;;;;;;;;;;;;4407313;32;19942;-74
2023/02/04 07:12:19;;;;;;;;;;;;;;;;;;4407011;32;20351;-72
2023/02/04 07:14:44;;;;;;;;;;;;;;;;;;4407097;32;20331;-74
2023/02/04 07:17:09;;;;;;;;;;;;;;;;;;4408633;32;20028;-73
2023/02/04 07:19:35;;;;;;;;;;;;;;;;;;4418173;32;19937;-73
2023/02/04 07:22:00;;;;;;;;;;;;;;;;;;4422621;32;19945;-73
2023/02/04 07:24:25;;;;;;;;;;;;;;;;;;4423745;32;19937;-73
2023/02/04 07:26:50;;;;;;;;;;;;;;;;;;4422933;32;19949;-74
2023/02/04 07:29:15;;;;;;;;;;;;;;;;;;4421124;32;20413;-74
2023/02/04 07:31:40;;;;;;;;;;;;;;;;;;4421783;32;20347;-74
2023/02/04 07:34:05;;;;;;;;;;;;;;;;;;4422721;32;20340;-74
2023/02/04 07:36:30;;;;;;;;;;;;;;;;;;4422849;32;19975;-74
2023/02/04 07:38:55;;;;;;;;;;;;;;;;;;4422444;32;20319;-73
2023/02/04 07:41:21;;;;;;;;;;;;;;;;;;4421023;32;19993;-74
2023/02/04 07:43:46;;;;;;;;;;;;;;;;;;4421686;32;19941;-74
2023/02/04 07:46:11;;;;;;;;;;;;;;;;;;4422542;32;20032;-74
2023/02/04 07:48:36;;;;;;;;;;;;;;;;;;4421928;32;19951;-74
2023/02/04 07:51:01;;;;;;;;;;;;;;;;;;4420972;32;20113;-74
2023/02/04 07:53:26;;;;;;;;;;;;;;;;;;4422184;32;19933;-75
2023/02/04 07:55:51;;;;;;;;;;;;;;;;;;4423305;32;19941;-73
2023/02/04 07:58:17;;;;;;;;;;;;;;;;;;4422837;32;19941;-73
2023/02/04 08:00:42;;;;;;;;;;;;;;;;;;4420901;32;20002;-73
2023/02/04 08:03:07;;;;;;;;;;;;;;;;;;4422652;32;19941;-74
2023/02/04 08:05:32;;;;;;;;;;;;;;;;;;4421434;32;20373;-73
2023/02/04 08:07:57;;;;;;;;;;;;;;;;;;4422102;32;19976;-73
2023/02/04 08:10:22;;;;;;;;;;;;;;;;;;4423098;32;19936;-73
2023/02/04 08:12:47;;;;;;;;;;;;;;;;;;4419811;32;19933;-74
2023/02/04 08:15:12;;;;;;;;;;;;;;;;;;4409516;32;20270;-74
2023/02/04 08:17:37;;;;;;;;;;;;;;;;;;4407744;32;19934;-74
2023/02/04 08:20:03;;;;;;;;;;;;;;;;;;4406299;32;19941;-74
2023/02/04 08:22:28;;;;;;;;;;;;;;;;;;4408213;32;19996;-74
2023/02/04 08:24:53;;;;;;;;;;;;;;;;;;4416510;32;19990;-74
2023/02/04 08:27:18;;;;;;;;;;;;;;;;;;4409671;32;19982;-74
2023/02/04 08:29:43;;;;;;;;;;;;;;;;;;4405258;32;19956;-74
2023/02/04 08:32:09;;;;;;;;;;;;;;;;;;4404969;32;19975;-74
2023/02/04 08:34:34;;;;;;;;;;;;;;;;;;4407015;32;19957;-74
2023/02/04 08:36:59;;;;;;;;;;;;;;;;;;4406207;32;19999;-74
2023/02/04 08:39:24;;;;;;;;;;;;;;;;;;4407562;32;19964;-74
2023/02/04 08:41:50;;;;;;;;;;;;;;;;;;4420488;32;19934;-74
2023/02/04 08:44:15;;;;;;;;;;;;;;;;;;4421141;32;19981;-74
2023/02/04 08:46:40;;;;;;;;;;;;;;;;;;4420025;32;19948;-74
2023/02/04 08:49:05;;;;;;;;;;;;;;;;;;4419780;32;19949;-74
2023/02/04 08:51:30;;;;;;;;;;;;;;;;;;4419874;32;19941;-72
2023/02/04 08:53:55;;;;;;;;;;;;;;;;;;4421292;32;19970;-74
2023/02/04 08:56:20;;;;;;;;;;;;;;;;;;4420271;32;19942;-74
2023/02/04 08:58:46;;;;;;;;;;;;;;;;;;4409103;32;19979;-73
2023/02/04 09:01:12;;;;;;;;;;;;;;;;;;4404764;32;19961;-74
2023/02/04 09:03:37;;;;;;;;;;;;;;;;;;4406167;32;19933;-74
2023/02/04 09:06:02;;;;;;;;;;;;;;;;;;4405965;32;19945;-72
2023/02/04 09:08:27;;;;;;;;;;;;;;;;;;4404551;32;19973;-74
2023/02/04 09:10:52;;;;;;;;;;;;;;;;;;4415940;32;20328;-74
2023/02/04 09:13:17;;;;;;;;;;;;;;;;;;4419727;32;19993;-74
2023/02/04 09:15:42;;;;;;;;;;;;;;;;;;4419647;32;19976;-72
2023/02/04 09:18:15;;;;;;;;;;;;;;;;;;4420892;32;20277;-74
2023/02/04 09:20:40;;;;;;;;;;;;;;;;;;4421884;32;19961;-73
2023/02/04 09:23:07;;;;;;;;;;;;;;;;;;4420634;32;19933;-73
2023/02/04 09:25:33;;;;;;;;;;;;;;;;;;4421258;32;19967;-74
2023/02/04 09:27:58;;;;;;;;;;;;;;;;;;4421807;32;20307;-73
2023/02/04 09:30:23;;;;;;;;;;;;;;;;;;4421188;32;19984;-74
2023/02/04 09:32:48;;;;;;;;;;;;;;;;;;4416779;32;19937;-74
2023/02/04 09:35:13;;;;;;;;;;;;;;;;;;4406438;32;19933;-74
2023/02/04 09:37:38;;;;;;;;;;;;;;;;;;4406983;32;19941;-74
2023/02/04 09:40:03;;;;;;;;;;;;;;;;;;4413042;32;20263;-74
2023/02/04 09:42:28;;;;;;;;;;;;;;;;;;4418781;32;19941;-74
2023/02/04 09:44:54;;;;;;;;;;;;;;;;;;4418398;32;20303;-74
2023/02/04 09:47:19;;;;;;;;;;;;;;;;;;4420529;32;19937;-74
2023/02/04 09:49:47;;;;;;;;;;;;;;;;;;4420538;32;19941;-74
2023/02/04 09:52:12;;;;;;;;;;;;;;;;;;4419732;32;19968;-75
2023/02/04 09:54:37;;;;;;;;;;;;;;;;;;4421035;32;19948;-75
2023/02/04 09:57:02;;;;;;;;;;;;;;;;;;4420443;32;19982;-73
2023/02/04 09:59:28;;;;;;;;;;;;;;;;;;4420628;32;19984;-73
2023/02/04 10:01:53;;;;;;;;;;;;;;;;;;4418995;32;19933;-73
2023/02/04 10:04:18;;;;;;;;;;;;;;;;;;4420023;32;20319;-74
2023/02/04 10:06:43;;;;;;;;;;;;;;;;;;4420120;32;19998;-74
2023/02/04 10:09:08;;;;;;;;;;;;;;;;;;4418998;32;19937;-74
2023/02/04 10:11:33;;;;;;;;;;;;;;;;;;4419826;32;20358;-73
2023/02/04 10:13:59;;;;;;;;;;;;;;;;;;4419736;32;19932;-72
2023/02/04 10:16:28;;;;;;;;;;;;;;;;;;4419709;32;19937;-74
2023/02/04 10:18:53;;;;;;;;;;;;;;;;;;4420930;32;19947;-73
2023/02/04 10:21:18;;;;;;;;;;;;;;;;;;4419119;32;19945;-74
2023/02/04 10:23:43;;;;;;;;;;;;;;;;;;4418968;32;19938;-74
2023/02/04 10:26:09;;;;;;;;;;;;;;;;;;4420927;32;19963;-74
2023/02/04 10:28:34;;;;;;;;;;;;;;;;;;4419637;32;19960;-74
2023/02/04 10:30:59;;;;;;;;;;;;;;;;;;4420183;32;19949;-74
2023/02/04 10:33:24;;;;;;;;;;;;;;;;;;4421672;32;20048;-74
2023/02/04 10:35:49;;;;;;;;;;;;;;;;;;4421706;32;19937;-74
2023/02/04 10:38:15;;;;;;;;;;;;;;;;;;4420315;32;19932;-75
2023/02/04 10:40:41;;;;;;;;;;;;;;;;;;4418197;32;19932;-74
2023/02/04 10:43:06;;;;;;;;;;;;;;;;;;4413940;32;20303;-74
2023/02/04 10:45:31;;;;;;;;;;;;;;;;;;4406416;32;19995;-74
2023/02/04 10:47:57;;;;;;;;;;;;;;;;;;4406462;32;20288;-75
2023/02/04 10:50:22;;;;;;;;;;;;;;;;;;4405593;32;19991;-74
2023/02/04 10:52:47;;;;;;;;;;;;;;;;;;4406433;32;19933;-74
2023/02/04 10:55:12;;;;;;;;;;;;;;;;;;4404932;32;19941;-74
2023/02/04 10:57:37;;;;;;;;;;;;;;;;;;4416296;32;20016;-74
2023/02/04 11:00:02;;;;;;;;;;;;;;;;;;4423859;32;19933;-74
2023/02/04 11:02:27;;;;;;;;;;;;;;;;;;4423194;32;20364;-74
2023/02/04 11:04:52;;;;;;;;;;;;;;;;;;4423259;32;19978;-74
2023/02/04 11:07:18;;;;;;;;;;;;;;;;;;4421514;32;19952;-74
2023/02/04 11:09:43;;;;;;;;;;;;;;;;;;4418567;32;19996;-74
2023/02/04 11:12:08;;;;;;;;;;;;;;;;;;4422679;32;19941;-75
2023/02/04 11:14:34;;;;;;;;;;;;;;;;;;4421211;32;20353;-75
2023/02/04 11:17:00;;;;;;;;;;;;;;;;;;4421591;32;19974;-74
2023/02/04 11:19:25;;;;;;;;;;;;;;;;;;4414216;32;19933;-74
2023/02/04 11:21:50;;;;;;;;;;;;;;;;;;4408597;32;20338;-74
2023/02/04 11:24:15;;;;;;;;;;;;;;;;;;4408689;32;19970;-74
2023/02/04 11:26:40;;;;;;;;;;;;;;;;;;4416391;32;19944;-74
2023/02/04 11:29:06;;;;;;;;;;;;;;;;;;4421406;32;19971;-74
2023/02/04 11:31:32;;;;;;;;;;;;;;;;;;4420617;32;19972;-74
2023/02/04 11:33:57;;;;;;;;;;;;;;;;;;4420640;32;19937;-74
2023/02/04 11:36:22;;;;;;;;;;;;;;;;;;4421086;32;20413;-74
2023/02/04 11:38:47;;;;;;;;;;;;;;;;;;4422470;32;19940;-74
2023/02/04 11:41:12;;;;;;;;;;;;;;;;;;4420244;32;20071;-75
2023/02/04 11:43:37;;;;;;;;;;;;;;;;;;4422146;32;20331;-70
2023/02/04 11:46:02;;;;;;;;;;;;;;;;;;4421810;32;20361;-70
2023/02/04 11:48:27;;;;;;;;;;;;;;;;;;4422638;32;19938;-70
2023/02/04 11:50:52;;;;;;;;;;;;;;;;;;4421519;32;19933;-70
2023/02/04 11:53:18;;;;;;;;;;;;;;;;;;4409004;32;19945;-71
2023/02/04 11:55:43;;;;;;;;;;;;;;;;;;4408875;32;19971;-70
2023/02/04 11:58:10;;;;;;;;;;;;;;;;;;4420808;32;19960;-71
2023/02/04 12:00:37;;;;;;;;;;;;;;;;;;4421647;32;19974;-71
2023/02/04 12:03:04;;;;;;;;;;;;;;;;;;4422655;32;20302;-71
2023/02/04 12:05:30;;;;;;;;;;;;;;;;;;4423401;32;20221;-70
2023/02/04 12:07:55;;;;;;;;;;;;;;;;;;4420957;32;19972;-70
2023/02/04 12:10:20;;;;;;;;;;;;;;;;;;4423244;32;19944;-72
2023/02/04 12:12:45;;;;;;;;;;;;;;;;;;4422413;32;20354;-70
2023/02/04 12:15:10;;;;;;;;;;;;;;;;;;4420551;32;19974;-72
2023/02/04 12:17:35;;;;;;;;;;;;;;;;;;4421793;32;19989;-70
2023/02/04 12:20:00;;;;;;;;;;;;;;;;;;4417385;32;19937;-70
2023/02/04 12:22:25;;;;;;;;;;;;;;;;;;4421897;32;20231;-70
2023/02/04 12:24:51;;;;;;;;;;;;;;;;;;4421211;32;19977;-70
2023/02/04 12:27:16;;;;;;;;;;;;;;;;;;4420912;32;19951;-70
2023/02/04 12:29:41;;;;;;;;;;;;;;;;;;4421779;32;19972;-70
2023/02/04 12:32:06;;;;;;;;;;;;;;;;;;4421825;32;19944;-70
2023/02/04 12:34:32;;;;;;;;;;;;;;;;;;4417231;32;20321;-70
2023/02/04 12:36:57;;;;;;;;;;;;;;;;;;4412222;32;20336;-69
2023/02/04 12:39:22;;;;;;;;;;;;;;;;;;4406163;32;20011;-70
2023/02/04 12:41:47;;;;;;;;;;;;;;;;;;4406626;32;19989;-70
2023/02/04 12:44:14;;;;;;;;;;;;;;;;;;4408356;32;19937;-70
2023/02/04 12:46:39;;;;;;;;;;;;;;;;;;4407643;32;19942;-70
2023/02/04 12:49:04;;;;;;;;;;;;;;;;;;4404720;32;19979;-70
2023/02/04 12:51:29;;;;;;;;;;;;;;;;;;4407936;32;19937;-70
2023/02/04 12:53:54;;;;;;;;;;;;;;;;;;4407640;32;20001;-71
2023/02/04 12:56:22;;;;;;;;;;;;;;;;;;4413842;32;19952;-70
2023/02/04 12:58:47;;;;;;;;;;;;;;;;;;4418177;32;19945;-70
2023/02/04 13:01:12;;;;;;;;;;;;;;;;;;4411228;32;20021;-70
2023/02/04 13:03:37;;;;;;;;;;;;;;;;;;4411357;32;19971;-71
2023/02/04 13:06:02;;;;;;;;;;;;;;;;;;4409157;32;20347;-72
2023/02/04 13:08:27;;;;;;;;;;;;;;;;;;4408676;32;20320;-71
2023/02/04 13:10:52;;;;;;;;;;;;;;;;;;4411995;32;20028;-70
2023/02/04 13:13:18;;;;;;;;;;;;;;;;;;4404754;32;19968;-71
2023/02/04 13:15:43;;;;;;;;;;;;;;;;;;4405510;32;20031;-71
2023/02/04 13:18:08;;;;;;;;;;;;;;;;;;4406897;32;19947;-70
2023/02/04 13:20:33;;;;;;;;;;;;;;;;;;4421503;32;19968;-69
2023/02/04 13:22:58;;;;;;;;;;;;;;;;;;4420716;32;20316;-71
2023/02/04 13:25:23;;;;;;;;;;;;;;;;;;4406766;32;20001;-70
2023/02/04 13:27:49;;;;;;;;;;;;;;;;;;4405594;32;19933;-70
2023/02/04 13:30:14;;;;;;;;;;;;;;;;;;4405921;32;19937;-70
2023/02/04 13:32:40;;;;;;;;;;;;;;;;;;4407093;32;20321;-70
2023/02/04 13:35:05;;;;;;;;;;;;;;;;;;4405823;32;20368;-70
2023/02/04 13:37:30;;;;;;;;;;;;;;;;;;4404109;32;20270;-71
2023/02/04 13:39:56;;;;;;;;;;;;;;;;;;4405690;32;19993;-71
2023/02/04 13:42:21;;;;;;;;;;;;;;;;;;4404910;32;19938;-71
2023/02/04 13:44:46;;;;;;;;;;;;;;;;;;4405102;32;19948;-69
2023/02/04 13:47:11;;;;;;;;;;;;;;;;;;4410062;32;20309;-70
2023/02/04 13:49:36;;;;;;;;;;;;;;;;;;4420867;32;20306;-69
2023/02/04 13:52:01;;;;;;;;;;;;;;;;;;4421193;32;19983;-70
2023/02/04 13:54:26;;;;;;;;;;;;;;;;;;4420546;32;19964;-70
2023/02/04 13:56:51;;;;;;;;;;;;;;;;;;4421532;32;20333;-71
2023/02/04 13:59:17;;;;;;;;;;;;;;;;;;4421007;32;19953;-70
2023/02/04 14:01:42;;;;;;;;;;;;;;;;;;4419795;32;19933;-71
2023/02/04 14:04:07;;;;;;;;;;;;;;;;;;4410784;32;19985;-70
2023/02/04 14:06:33;;;;;;;;;;;;;;;;;;4405259;32;19983;-70
2023/02/04 14:08:58;;;;;;;;;;;;;;;;;;4405650;32;19957;-69
2023/02/04 14:11:23;;;;;;;;;;;;;;;;;;4406112;32;19941;-69
2023/02/04 14:13:48;;;;;;;;;;;;;;;;;;4405295;32;19976;-70
2023/02/04 14:16:13;;;;;;;;;;;;;;;;;;4405062;32;19941;-71
2023/02/04 14:18:38;;;;;;;;;;;;;;;;;;4406070;32;20420;-70
2023/02/04 14:21:04;;;;;;;;;;;;;;;;;;4405042;32;19968;-70
2023/02/04 14:23:29;;;;;;;;;;;;;;;;;;4406012;32;19938;-71
2023/02/04 14:25:54;;;;;;;;;;;;;;;;;;4404792;32;19941;-70
2023/02/04 14:28:19;;;;;;;;;;;;;;;;;;4403507;32;19961;-72
2023/02/04 14:30:44;;;;;;;;;;;;;;;;;;4407169;32;19938;-71
2023/02/04 14:33:09;;;;;;;;;;;;;;;;;;4407960;32;19953;-71
2023/02/04 14:35:36;;;;;;;;;;;;;;;;;;4408711;32;19933;-71
2023/02/04 14:38:01;;;;;;;;;;;;;;;;;;4407765;32;19930;-70
2023/02/04 14:40:26;;;;;;;;;;;;;;;;;;4407938;32;19972;-72
2023/02/04 14:42:51;;;;;;;;;;;;;;;;;;4407649;32;19951;-71
2023/02/04 14:45:17;;;;;;;;;;;;;;;;;;4409397;32;19933;-71
2023/02/04 14:47:42;;;;;;;;;;;;;;;;;;4410064;32;19973;-71
2023/02/04 14:50:07;;;;;;;;;;;;;;;;;;4409971;32;19937;-71
2023/02/04 14:52:32;;;;;;;;;;;;;;;;;;4405875;32;19995;-70
2023/02/04 14:54:58;;;;;;;;;;;;;;;;;;4407628;32;19938;-71
2023/02/04 14:57:23;;;;;;;;;;;;;;;;;;4406017;32;19950;-70
2023/02/04 14:59:48;;;;;;;;;;;;;;;;;;4408271;32;19942;-71
2023/02/04 15:02:16;;;;;;;;;;;;;;;;;;4421353;32;19941;-70
2023/02/04 15:04:41;;;;;;;;;;;;;;;;;;4423654;32;19937;-71
2023/02/04 15:07:07;;;;;;;;;;;;;;;;;;4421292;32;20018;-69
2023/02/04 15:09:32;;;;;;;;;;;;;;;;;;4422795;32;20044;-70
2023/02/04 15:11:57;;;;;;;;;;;;;;;;;;4420993;32;19949;-70
2023/02/04 15:14:22;;;;;;;;;;;;;;;;;;4421075;32;19937;-69
2023/02/04 15:16:48;;;;;;;;;;;;;;;;;;4406664;32;19945;-70
2023/02/04 15:19:13;;;;;;;;;;;;;;;;;;4414975;32;19989;-70
2023/02/04 15:21:38;;;;;;;;;;;;;;;;;;4406051;32;19980;-72
2023/02/04 15:24:03;;;;;;;;;;;;;;;;;;4410484;32;19964;-69
2023/02/04 15:26:28;;;;;;;;;;;;;;;;;;4417564;32;19941;-70
2023/02/04 15:28:54;;;;;;;;;;;;;;;;;;4420755;32;19945;-70
2023/02/04 15:31:19;;;;;;;;;;;;;;;;;;4422923;32;19937;-70
2023/02/04 15:33:44;;;;;;;;;;;;;;;;;;4414605;32;19933;-70
2023/02/04 15:36:09;;;;;;;;;;;;;;;;;;4413761;32;19933;-70
2023/02/04 15:38:34;;;;;;;;;;;;;;;;;;4423846;32;19937;-70
2023/02/04 15:41:00;;;;;;;;;;;;;;;;;;4418641;32;19941;-70
2023/02/04 15:43:25;;;;;;;;;;;;;;;;;;4414289;32;19984;-71
2023/02/04 15:45:50;;;;;;;;;;;;;;;;;;4413017;32;19942;-71
2023/02/04 15:48:18;;;;;;;;;;;;;;;;;;4413910;32;19941;-71
2023/02/04 15:50:43;;;;;;;;;;;;;;;;;;4414443;32;20387;-70
2023/02/04 15:53:08;;;;;;;;;;;;;;;;;;4413046;32;20331;-71
2023/02/04 15:55:33;;;;;;;;;;;;;;;;;;4415494;32;19936;-69
2023/02/04 15:57:58;;;;;;;;;;;;;;;;;;4409038;32;19938;-70
2023/02/04 16:00:24;;;;;;;;;;;;;;;;;;4406656;32;19938;-70
2023/02/04 16:02:49;;;;;;;;;;;;;;;;;;4407065;32;19942;-70
2023/02/04 16:05:14;;;;;;;;;;;;;;;;;;4407554;32;20311;-71
2023/02/04 16:07:39;;;;;;;;;;;;;;;;;;4408087;32;19942;-69
2023/02/04 16:10:04;;;;;;;;;;;;;;;;;;4408099;32;20382;-70
2023/02/04 16:12:29;;;;;;;;;;;;;;;;;;4405399;32;19937;-70
2023/02/04 16:14:54;;;;;;;;;;;;;;;;;;4407487;32;20255;-70
2023/02/04 16:17:19;;;;;;;;;;;;;;;;;;4408054;32;19934;-69
2023/02/04 16:19:44;;;;;;;;;;;;;;;;;;4404949;32;19941;-70
2023/02/04 16:22:10;;;;;;;;;;;;;;;;;;4406259;32;19937;-71
2023/02/04 16:24:35;;;;;;;;;;;;;;;;;;4406603;32;19971;-73
2023/02/04 16:27:00;;;;;;;;;;;;;;;;;;4404949;32;19967;-70
2023/02/04 16:29:26;;;;;;;;;;;;;;;;;;4405434;32;19988;-70
2023/02/04 16:31:52;;;;;;;;;;;;;;;;;;4406069;32;20330;-71